sensor_id;sensor_type;location;lat;lon;timestamp;pressure;altitude;pressure_sealevel;temperature;humidity
51229;BME280;37304;52.216;6.874;2023-02-22T00:03:48;101339.06;;;7.19;100.00
51229;BME280;37304;52.216;6.874;2023-02-22T00:08:49;101339.91;;;7.18;100.00
51229;BME280;37304;52.216;6.874;2023-02-22T00:13:51;101338.19;;;7.17;100.00
51229;BME280;37304;52.216;6.874;2023-02-22T00:18:56;101328.69;;;7.16;100.00
51229;BME280;37304;52.216;6.874;2023-02-22T00:23:56;101320.03;;;7.12;100.00
51229;BME280;37304;52.216;6.874;2023-02-22T00:28:56;101320.00;;;7.06;100.00
51229;BME280;37304;52.216;6.874;2023-02-22T00:33:57;101314.84;;;7.06;100.00
51229;BME280;37304;52.216;6.874;2023-02-22T00:38:57;101323.44;;;7.05;100.00
51229;BME280;37304;52.216;6.874;2023-02-22T00:43:57;101313.97;;;7.01;100.00
51229;BME280;37304;52.216;6.874;2023-02-22T00:48:58;101306.19;;;7.01;100.00
51229;BME280;37304;52.216;6.874;2023-02-22T00:53:58;101300.16;;;6.99;100.00
51229;BME280;37304;52.216;6.874;2023-02-22T00:58:59;101287.19;;;6.94;100.00
51229;BME280;37304;52.216;6.874;2023-02-22T01:04:02;101287.16;;;6.88;100.00
51229;BME280;37304;52.216;6.874;2023-02-22T01:09:04;101278.59;;;6.92;100.00
51229;BME280;37304;52.216;6.874;2023-02-22T01:14:06;101283.72;;;6.89;100.00
51229;BME280;37304;52.216;6.874;2023-02-22T01:19:08;101279.44;;;6.87;100.00
51229;BME280;37304;52.216;6.874;2023-02-22T01:24:10;101269.94;;;6.82;100.00
51229;BME280;37304;52.216;6.874;2023-02-22T01:29:16;101271.63;;;6.82;100.00
51229;BME280;37304;52.216;6.874;2023-02-22T01:34:17;101274.22;;;6.79;100.00
51229;BME280;37304;52.216;6.874;2023-02-22T01:39:17;101269.91;;;6.79;100.00
51229;BME280;37304;52.216;6.874;2023-02-22T01:49:36;101263.03;;;6.83;100.00
51229;BME280;37304;52.216;6.874;2023-02-22T01:54:41;101260.41;;;6.77;100.00
51229;BME280;37304;52.216;6.874;2023-02-22T01:59:48;101253.50;;;6.69;100.00
51229;BME280;37304;52.216;6.874;2023-02-22T02:04:54;101250.03;;;6.63;100.00
51229;BME280;37304;52.216;6.874;2023-02-22T02:10:00;101230.22;;;6.66;100.00
51229;BME280;37304;52.216;6.874;2023-02-22T02:15:25;101227.63;;;6.60;100.00
51229;BME280;37304;52.216;6.874;2023-02-22T02:26:11;101206.91;;;6.54;100.00
51229;BME280;37304;52.216;6.874;2023-02-22T02:31:30;101190.53;;;6.50;100.00
51229;BME280;37304;52.216;6.874;2023-02-22T02:41:49;101201.69;;;6.45;100.00
51229;BME280;37304;52.216;6.874;2023-02-22T02:46:58;101182.75;;;6.44;100.00
51229;BME280;37304;52.216;6.874;2023-02-22T02:52:02;101175.88;;;6.45;100.00
51229;BME280;37304;52.216;6.874;2023-02-22T02:57:03;101180.19;;;6.46;100.00
51229;BME280;37304;52.216;6.874;2023-02-22T03:12:48;101162.13;;;6.47;100.00
51229;BME280;37304;52.216;6.874;2023-02-22T03:23:12;101150.91;;;6.40;100.00
51229;BME280;37304;52.216;6.874;2023-02-22T03:28:17;101133.63;;;6.29;100.00
51229;BME280;37304;52.216;6.874;2023-02-22T03:33:29;101138.72;;;6.18;100.00
51229;BME280;37304;52.216;6.874;2023-02-22T03:38:35;101146.41;;;6.11;100.00
51229;BME280;37304;52.216;6.874;2023-02-22T03:43:40;101141.22;;;6.05;100.00
51229;BME280;37304;52.216;6.874;2023-02-22T03:54:04;101142.00;;;5.98;100.00
51229;BME280;37304;52.216;6.874;2023-02-22T03:59:07;101143.72;;;5.97;100.00
51229;BME280;37304;52.216;6.874;2023-02-22T04:04:09;101135.09;;;5.97;100.00
51229;BME280;37304;52.216;6.874;2023-02-22T04:09:09;101132.50;;;5.94;100.00
51229;BME280;37304;52.216;6.874;2023-02-22T04:14:10;101128.19;;;5.93;100.00
51229;BME280;37304;52.216;6.874;2023-02-22T04:19:10;101134.22;;;5.92;100.00
51229;BME280;37304;52.216;6.874;2023-02-22T04:24:11;101141.97;;;5.95;100.00
51229;BME280;37304;52.216;6.874;2023-02-22T04:29:12;101132.47;;;5.92;100.00
51229;BME280;37304;52.216;6.874;2023-02-22T04:34:12;101135.94;;;5.94;100.00
51229;BME280;37304;52.216;6.874;2023-02-22T04:39:12;101136.84;;;5.98;100.00
51229;BME280;37304;52.216;6.874;2023-02-22T04:44:13;101131.66;;;5.98;100.00
51229;BME280;37304;52.216;6.874;2023-02-22T04:49:14;101129.09;;;5.98;100.00
51229;BME280;37304;52.216;6.874;2023-02-22T04:54:14;101126.50;;;5.95;100.00
51229;BME280;37304;52.216;6.874;2023-02-22T04:59:16;101125.63;;;5.93;100.00
51229;BME280;37304;52.216;6.874;2023-02-22T05:04:18;101123.88;;;5.89;100.00
51229;BME280;37304;52.216;6.874;2023-02-22T05:09:20;101119.59;;;5.92;100.00
51229;BME280;37304;52.216;6.874;2023-02-22T05:14:21;101114.44;;;5.91;100.00
51229;BME280;37304;52.216;6.874;2023-02-22T05:19:21;101120.44;;;5.91;100.00
51229;BME280;37304;52.216;6.874;2023-02-22T05:24:22;101122.16;;;5.91;100.00
51229;BME280;37304;52.216;6.874;2023-02-22T05:29:22;101120.44;;;5.94;100.00
51229;BME280;37304;52.216;6.874;2023-02-22T05:34:22;101112.75;;;5.96;100.00
51229;BME280;37304;52.216;6.874;2023-02-22T05:39:23;101104.97;;;5.94;100.00
51229;BME280;37304;52.216;6.874;2023-02-22T05:44:23;101109.22;;;5.86;100.00
51229;BME280;37304;52.216;6.874;2023-02-22T05:49:24;101100.59;;;5.81;100.00
51229;BME280;37304;52.216;6.874;2023-02-22T05:54:24;101106.56;;;5.77;100.00
51229;BME280;37304;52.216;6.874;2023-02-22T05:59:25;101097.09;;;5.73;100.00
51229;BME280;37304;52.216;6.874;2023-02-22T06:04:25;101094.53;;;5.74;100.00
51229;BME280;37304;52.216;6.874;2023-02-22T06:09:26;101101.44;;;5.78;100.00
51229;BME280;37304;52.216;6.874;2023-02-22T06:14:27;101101.41;;;5.72;100.00
51229;BME280;37304;52.216;6.874;2023-02-22T06:19:27;101107.38;;;5.65;100.00
51229;BME280;37304;52.216;6.874;2023-02-22T06:24:28;101104.75;;;5.63;100.00
51229;BME280;37304;52.216;6.874;2023-02-22T06:29:28;101103.00;;;5.61;100.00
51229;BME280;37304;52.216;6.874;2023-02-22T06:34:28;101106.53;;;5.69;100.00
51229;BME280;37304;52.216;6.874;2023-02-22T06:39:29;101102.13;;;5.54;100.00
51229;BME280;37304;52.216;6.874;2023-02-22T06:44:29;101102.97;;;5.53;100.00
51229;BME280;37304;52.216;6.874;2023-02-22T06:49:29;101100.41;;;5.56;100.00
51229;BME280;37304;52.216;6.874;2023-02-22T06:54:30;101098.69;;;5.60;100.00
51229;BME280;37304;52.216;6.874;2023-02-22T06:59:30;101103.00;;;5.56;100.00
51229;BME280;37304;52.216;6.874;2023-02-22T07:04:31;101107.25;;;5.56;100.00
51229;BME280;37304;52.216;6.874;2023-02-22T07:09:31;101104.75;;;5.63;100.00
51229;BME280;37304;52.216;6.874;2023-02-22T07:14:32;101100.47;;;5.62;100.00
51229;BME280;37304;52.216;6.874;2023-02-22T07:19:32;101100.50;;;5.64;100.00
51229;BME280;37304;52.216;6.874;2023-02-22T07:24:32;101103.97;;;5.69;100.00
51229;BME280;37304;52.216;6.874;2023-02-22T07:29:34;101103.94;;;5.66;100.00
51229;BME280;37304;52.216;6.874;2023-02-22T07:34:37;101101.25;;;5.55;100.00
51229;BME280;37304;52.216;6.874;2023-02-22T07:39:37;101096.13;;;5.60;100.00
51229;BME280;37304;52.216;6.874;2023-02-22T07:44:40;101094.41;;;5.59;100.00
51229;BME280;37304;52.216;6.874;2023-02-22T07:49:41;101103.94;;;5.66;100.00
51229;BME280;37304;52.216;6.874;2023-02-22T07:54:47;101100.47;;;5.62;100.00
51229;BME280;37304;52.216;6.874;2023-02-22T07:59:48;101101.28;;;5.58;100.00
51229;BME280;37304;52.216;6.874;2023-02-22T08:04:48;101092.78;;;5.72;100.00
51229;BME280;37304;52.216;6.874;2023-02-22T08:09:49;101100.56;;;5.76;100.00
51229;BME280;37304;52.216;6.874;2023-02-22T08:14:50;101091.09;;;5.77;100.00
51229;BME280;37304;52.216;6.874;2023-02-22T08:19:50;101080.78;;;5.74;100.00
51229;BME280;37304;52.216;6.874;2023-02-22T08:24:50;101073.03;;;5.72;100.00
51229;BME280;37304;52.216;6.874;2023-02-22T08:29:54;101077.38;;;5.76;100.00
51229;BME280;37304;52.216;6.874;2023-02-22T08:34:54;101068.72;;;5.68;100.00
51229;BME280;37304;52.216;6.874;2023-02-22T08:39:55;101066.97;;;5.68;100.00
51229;BME280;37304;52.216;6.874;2023-02-22T08:44:55;101070.47;;;5.75;100.00
51229;BME280;37304;52.216;6.874;2023-02-22T08:49:58;101068.75;;;5.76;100.00
51229;BME280;37304;52.216;6.874;2023-02-22T08:55:01;101066.13;;;5.65;100.00
51229;BME280;37304;52.216;6.874;2023-02-22T09:00:03;101065.19;;;5.58;100.00
51229;BME280;37304;52.216;6.874;2023-02-22T09:05:04;101067.84;;;5.66;100.00
51229;BME280;37304;52.216;6.874;2023-02-22T09:10:06;101075.53;;;5.64;100.00
51229;BME280;37304;52.216;6.874;2023-02-22T09:15:07;101074.81;;;5.79;100.00
51229;BME280;37304;52.216;6.874;2023-02-22T09:20:08;101076.50;;;5.79;100.00
51229;BME280;37304;52.216;6.874;2023-02-22T09:25:11;101069.63;;;5.76;100.00
51229;BME280;37304;52.216;6.874;2023-02-22T09:30:26;101046.44;;;5.84;100.00
51229;BME280;37304;52.216;6.874;2023-02-22T09:35:27;101050.91;;;6.05;100.00
51229;BME280;37304;52.216;6.874;2023-02-22T09:40:30;101047.53;;;6.22;100.00
51229;BME280;37304;52.216;6.874;2023-02-22T09:45:38;101032.13;;;6.34;100.00
51229;BME280;37304;52.216;6.874;2023-02-22T09:50:45;101021.84;;;6.58;100.00
51229;BME280;37304;52.216;6.874;2023-02-22T09:55:51;101006.41;;;6.81;100.00
51229;BME280;37304;52.216;6.874;2023-02-22T10:00:57;100973.69;;;7.42;100.00
51229;BME280;37304;52.216;6.874;2023-02-22T10:06:01;100965.91;;;7.67;100.00
51229;BME280;37304;52.216;6.874;2023-02-22T10:16:36;100938.78;;;8.47;100.00
51229;BME280;37304;52.216;6.874;2023-02-22T10:27:07;100927.81;;;9.28;100.00
51229;BME280;37304;52.216;6.874;2023-02-22T10:32:19;100918.78;;;9.63;100.00
51229;BME280;37304;52.216;6.874;2023-02-22T10:37:27;100926.34;;;9.00;100.00
51229;BME280;37304;52.216;6.874;2023-02-22T10:42:28;100914.22;;;9.82;100.00
51229;BME280;37304;52.216;6.874;2023-02-22T10:47:28;100915.56;;;9.41;100.00
51229;BME280;37304;52.216;6.874;2023-02-22T10:52:31;100908.94;;;9.12;100.00
51229;BME280;37304;52.216;6.874;2023-02-22T10:57:34;100902.16;;;8.98;100.00
51229;BME280;37304;52.216;6.874;2023-02-22T11:02:36;100899.38;;;9.15;100.00
51229;BME280;37304;52.216;6.874;2023-02-22T11:07:37;100898.53;;;9.15;100.00
51229;BME280;37304;52.216;6.874;2023-02-22T11:12:39;100888.88;;;9.31;100.00
51229;BME280;37304;52.216;6.874;2023-02-22T11:17:40;100875.56;;;9.60;100.00
51229;BME280;37304;52.216;6.874;2023-02-22T11:22:41;100876.25;;;9.75;100.00
51229;BME280;37304;52.216;6.874;2023-02-22T11:27:43;100884.47;;;10.10;100.00
51229;BME280;37304;52.216;6.874;2023-02-22T11:32:59;100879.13;;;10.19;100.00
51229;BME280;37304;52.216;6.874;2023-02-22T11:38:10;100868.34;;;10.47;100.00
51229;BME280;37304;52.216;6.874;2023-02-22T11:43:16;100862.16;;;10.56;100.00
51229;BME280;37304;52.216;6.874;2023-02-22T11:48:18;100849.00;;;11.14;100.00
51229;BME280;37304;52.216;6.874;2023-02-22T11:54:00;100844.53;;;11.20;100.00
51229;BME280;37304;52.216;6.874;2023-02-22T11:59:35;100833.88;;;10.87;100.00
51229;BME280;37304;52.216;6.874;2023-02-22T12:05:19;100838.25;;;10.85;100.00
51229;BME280;37304;52.216;6.874;2023-02-22T12:15:28;100818.25;;;10.89;100.00
51229;BME280;37304;52.216;6.874;2023-02-22T12:20:37;100815.44;;;11.01;100.00
51229;BME280;37304;52.216;6.874;2023-02-22T12:25:59;100809.19;;;11.12;100.00
51229;BME280;37304;52.216;6.874;2023-02-22T12:31:41;100801.31;;;11.15;100.00
51229;BME280;37304;52.216;6.874;2023-02-22T12:36:59;100808.53;;;11.44;100.00
51229;BME280;37304;52.216;6.874;2023-02-22T12:42:11;100802.25;;;11.53;100.00
51229;BME280;37304;52.216;6.874;2023-02-22T12:47:16;100801.25;;;11.18;100.00
51229;BME280;37304;52.216;6.874;2023-02-22T12:57:55;100807.00;;;11.34;100.00
51229;BME280;37304;52.216;6.874;2023-02-22T13:03:14;100806.75;;;11.45;100.00
51229;BME280;37304;52.216;6.874;2023-02-22T13:08:33;100805.38;;;11.69;100.00
51229;BME280;37304;52.216;6.874;2023-02-22T13:19:23;100798.44;;;12.45;100.00
51229;BME280;37304;52.216;6.874;2023-02-22T13:29:47;100808.00;;;12.79;100.00
51229;BME280;37304;52.216;6.874;2023-02-22T13:34:59;100797.69;;;12.75;100.00
51229;BME280;37304;52.216;6.874;2023-02-22T13:56:26;100777.81;;;12.71;100.00
51229;BME280;37304;52.216;6.874;2023-02-22T14:01:43;100773.88;;;12.54;100.00
51229;BME280;37304;52.216;6.874;2023-02-22T14:06:44;100764.16;;;12.28;100.00
51229;BME280;37304;52.216;6.874;2023-02-22T14:11:46;100759.13;;;12.18;100.00
51229;BME280;37304;52.216;6.874;2023-02-22T14:17:20;100763.75;;;12.07;100.00
51229;BME280;37304;52.216;6.874;2023-02-22T14:22:28;100761.44;;;11.94;100.00
51229;BME280;37304;52.216;6.874;2023-02-22T14:27:39;100753.69;;;11.90;100.00
51229;BME280;37304;52.216;6.874;2023-02-22T14:32:39;100751.41;;;11.77;100.00
51229;BME280;37304;52.216;6.874;2023-02-22T14:37:41;100752.44;;;11.70;100.00
51229;BME280;37304;52.216;6.874;2023-02-22T14:42:48;100750.69;;;11.71;100.00
51229;BME280;37304;52.216;6.874;2023-02-22T14:48:00;100756.03;;;11.64;100.00
51229;BME280;37304;52.216;6.874;2023-02-22T14:53:28;100757.81;;;11.62;100.00
51229;BME280;37304;52.216;6.874;2023-02-22T14:58:40;100761.25;;;11.64;100.00
51229;BME280;37304;52.216;6.874;2023-02-22T15:03:45;100766.41;;;11.66;100.00
51229;BME280;37304;52.216;6.874;2023-02-22T15:08:47;100758.50;;;11.71;100.00
51229;BME280;37304;52.216;6.874;2023-02-22T15:13:50;100753.44;;;11.64;100.00
51229;BME280;37304;52.216;6.874;2023-02-22T15:18:59;100759.59;;;11.60;100.00
51229;BME280;37304;52.216;6.874;2023-02-22T15:24:04;100759.59;;;11.60;100.00
51229;BME280;37304;52.216;6.874;2023-02-22T15:29:13;100763.06;;;11.59;100.00
51229;BME280;37304;52.216;6.874;2023-02-22T15:34:18;100770.19;;;11.53;100.00
51229;BME280;37304;52.216;6.874;2023-02-22T15:44:42;100759.09;;;11.44;100.00
51229;BME280;37304;52.216;6.874;2023-02-22T15:49:42;100760.75;;;11.47;100.00
51229;BME280;37304;52.216;6.874;2023-02-22T15:54:46;100761.84;;;11.36;100.00
51229;BME280;37304;52.216;6.874;2023-02-22T15:59:53;100761.91;;;11.33;100.00
51229;BME280;37304;52.216;6.874;2023-02-22T16:04:58;100761.16;;;11.28;100.00
51229;BME280;37304;52.216;6.874;2023-02-22T16:09:59;100758.63;;;11.24;100.00
51229;BME280;37304;52.216;6.874;2023-02-22T16:15:14;100768.25;;;11.20;100.00
51229;BME280;37304;52.216;6.874;2023-02-22T16:30:38;100767.88;;;10.96;100.00
51229;BME280;37304;52.216;6.874;2023-02-22T16:35:39;100767.06;;;10.91;100.00
51229;BME280;37304;52.216;6.874;2023-02-22T16:40:43;100770.66;;;10.85;100.00
51229;BME280;37304;52.216;6.874;2023-02-22T16:45:44;100769.03;;;10.80;100.00
51229;BME280;37304;52.216;6.874;2023-02-22T16:50:46;100770.91;;;10.73;100.00
51229;BME280;37304;52.216;6.874;2023-02-22T16:55:48;100781.31;;;10.71;100.00
51229;BME280;37304;52.216;6.874;2023-02-22T17:00:49;100786.66;;;10.63;100.00
51229;BME280;37304;52.216;6.874;2023-02-22T17:05:50;100778.16;;;10.54;100.00
51229;BME280;37304;52.216;6.874;2023-02-22T17:10:52;100786.09;;;10.46;100.00
51229;BME280;37304;52.216;6.874;2023-02-22T17:15:56;100789.78;;;10.29;100.00
51229;BME280;37304;52.216;6.874;2023-02-22T17:20:56;100794.22;;;10.23;100.00
51229;BME280;37304;52.216;6.874;2023-02-22T17:25:58;100786.47;;;10.19;100.00
51229;BME280;37304;52.216;6.874;2023-02-22T17:30:59;100789.16;;;10.15;100.00
51229;BME280;37304;52.216;6.874;2023-02-22T17:36:02;100800.50;;;10.09;100.00
51229;BME280;37304;52.216;6.874;2023-02-22T17:41:05;100802.31;;;10.04;100.00
51229;BME280;37304;52.216;6.874;2023-02-22T17:46:07;100810.22;;;9.96;100.00
51229;BME280;37304;52.216;6.874;2023-02-22T17:51:09;100814.63;;;9.89;100.00
51229;BME280;37304;52.216;6.874;2023-02-22T17:56:12;100819.09;;;9.80;100.00
51229;BME280;37304;52.216;6.874;2023-02-22T18:06:28;100833.81;;;9.79;100.00
51229;BME280;37304;52.216;6.874;2023-02-22T18:11:29;100832.94;;;9.79;100.00
51229;BME280;37304;52.216;6.874;2023-02-22T18:16:32;100835.53;;;9.79;100.00
51229;BME280;37304;52.216;6.874;2023-02-22T18:21:32;100839.09;;;9.73;100.00
51229;BME280;37304;52.216;6.874;2023-02-22T18:26:32;100845.25;;;9.66;100.00
51229;BME280;37304;52.216;6.874;2023-02-22T18:31:33;100842.69;;;9.61;100.00
51229;BME280;37304;52.216;6.874;2023-02-22T18:36:33;100841.13;;;9.46;100.00
51229;BME280;37304;52.216;6.874;2023-02-22T18:41:33;100834.31;;;9.39;100.00
51229;BME280;37304;52.216;6.874;2023-02-22T18:46:34;100848.25;;;9.28;100.00
51229;BME280;37304;52.216;6.874;2023-02-22T18:51:35;100851.78;;;9.23;100.00
51229;BME280;37304;52.216;6.874;2023-02-22T18:56:36;100863.09;;;9.17;100.00
51229;BME280;37304;52.216;6.874;2023-02-22T19:01:39;100866.59;;;9.11;100.00
51229;BME280;37304;52.216;6.874;2023-02-22T19:06:40;100862.41;;;8.99;100.00
51229;BME280;37304;52.216;6.874;2023-02-22T19:11:42;100874.59;;;8.88;100.00
51229;BME280;37304;52.216;6.874;2023-02-22T19:16:44;100872.88;;;8.84;100.00
51229;BME280;37304;52.216;6.874;2023-02-22T19:21:48;100881.56;;;8.81;100.00
51229;BME280;37304;52.216;6.874;2023-02-22T19:26:49;100883.34;;;8.74;100.00
51229;BME280;37304;52.216;6.874;2023-02-22T19:31:51;100880.00;;;8.65;100.00
51229;BME280;37304;52.216;6.874;2023-02-22T19:36:52;100892.09;;;8.61;100.00
51229;BME280;37304;52.216;6.874;2023-02-22T19:41:54;100893.84;;;8.56;100.00
51229;BME280;37304;52.216;6.874;2023-02-22T19:46:55;100905.06;;;8.58;100.00
51229;BME280;37304;52.216;6.874;2023-02-22T19:51:55;100899.03;;;8.56;100.00
51229;BME280;37304;52.216;6.874;2023-02-22T19:56:57;100908.56;;;8.54;100.00
51229;BME280;37304;52.216;6.874;2023-02-22T20:01:57;100908.56;;;8.49;100.00
51229;BME280;37304;52.216;6.874;2023-02-22T20:06:58;100901.66;;;8.45;100.00
51229;BME280;37304;52.216;6.874;2023-02-22T20:11:58;100908.59;;;8.40;100.00
51229;BME280;37304;52.216;6.874;2023-02-22T20:16:59;100917.28;;;8.34;100.00
51229;BME280;37304;52.216;6.874;2023-02-22T20:21:59;100915.56;;;8.31;100.00
51229;BME280;37304;52.216;6.874;2023-02-22T20:26:59;100925.06;;;8.28;100.00
51229;BME280;37304;52.216;6.874;2023-02-22T20:32:00;100928.53;;;8.27;100.00
51229;BME280;37304;52.216;6.874;2023-02-22T20:37:01;100931.16;;;8.22;100.00
51229;BME280;37304;52.216;6.874;2023-02-22T20:42:02;100938.91;;;8.21;100.00
51229;BME280;37304;52.216;6.874;2023-02-22T20:47:04;100947.59;;;8.15;100.00
51229;BME280;37304;52.216;6.874;2023-02-22T20:52:04;100951.03;;;8.15;100.00
51229;BME280;37304;52.216;6.874;2023-02-22T20:57:04;100958.81;;;8.17;100.00
51229;BME280;37304;52.216;6.874;2023-02-22T21:02:08;100951.03;;;8.15;100.00
51229;BME280;37304;52.216;6.874;2023-02-22T21:07:09;100954.50;;;8.14;100.00
51229;BME280;37304;52.216;6.874;2023-02-22T21:12:09;100955.38;;;8.12;100.00
51229;BME280;37304;52.216;6.874;2023-02-22T21:17:12;100955.38;;;8.07;100.00
51229;BME280;37304;52.216;6.874;2023-02-22T21:22:12;100964.03;;;8.05;100.00
51229;BME280;37304;52.216;6.874;2023-02-22T21:27:13;100962.34;;;7.94;100.00
51229;BME280;37304;52.216;6.874;2023-02-22T21:32:15;100952.88;;;7.90;100.00
51229;BME280;37304;52.216;6.874;2023-02-22T21:37:15;100951.16;;;7.91;100.00
51229;BME280;37304;52.216;6.874;2023-02-22T21:42:17;100948.56;;;7.86;100.00
51229;BME280;37304;52.216;6.874;2023-02-22T21:47:17;100953.75;;;7.86;100.00
51229;BME280;37304;52.216;6.874;2023-02-22T21:52:17;100955.47;;;7.81;100.00
51229;BME280;37304;52.216;6.874;2023-02-22T21:57:18;100956.34;;;7.84;100.00
51229;BME280;37304;52.216;6.874;2023-02-22T22:02:18;100952.91;;;7.82;100.00
51229;BME280;37304;52.216;6.874;2023-02-22T22:07:20;100951.19;;;7.78;100.00
51229;BME280;37304;52.216;6.874;2023-02-22T22:12:22;100956.34;;;7.81;100.00
51229;BME280;37304;52.216;6.874;2023-02-22T22:17:25;100945.16;;;7.79;100.00
51229;BME280;37304;52.216;6.874;2023-02-22T22:22:25;100938.22;;;7.83;100.00
51229;BME280;37304;52.216;6.874;2023-02-22T22:27:27;100937.38;;;7.82;100.00
51229;BME280;37304;52.216;6.874;2023-02-22T22:32:27;100938.25;;;7.81;100.00
51229;BME280;37304;52.216;6.874;2023-02-22T22:37:31;100942.56;;;7.82;100.00
51229;BME280;37304;52.216;6.874;2023-02-22T22:42:31;100943.41;;;7.84;100.00
51229;BME280;37304;52.216;6.874;2023-02-22T22:47:31;100944.25;;;7.86;100.00
51229;BME280;37304;52.216;6.874;2023-02-22T22:52:32;100943.41;;;7.80;100.00
51229;BME280;37304;52.216;6.874;2023-02-22T22:57:35;100953.78;;;7.73;100.00
51229;BME280;37304;52.216;6.874;2023-02-22T23:02:35;100963.28;;;7.76;100.00
51229;BME280;37304;52.216;6.874;2023-02-22T23:07:37;100960.69;;;7.71;100.00
51229;BME280;37304;52.216;6.874;2023-02-22T23:12:37;100966.72;;;7.78;100.00
51229;BME280;37304;52.216;6.874;2023-02-22T23:17:38;100968.47;;;7.73;100.00
51229;BME280;37304;52.216;6.874;2023-02-22T23:22:41;100963.28;;;7.71;100.00
51229;BME280;37304;52.216;6.874;2023-02-22T23:27:50;100971.00;;;7.81;100.00
51229;BME280;37304;52.216;6.874;2023-02-22T23:32:52;100969.31;;;7.73;100.00
51229;BME280;37304;52.216;6.874;2023-02-22T23:37:52;100973.63;;;7.73;100.00
51229;BME280;37304;52.216;6.874;2023-02-22T23:42:52;100972.78;;;7.68;100.00
51229;BME280;37304;52.216;6.874;2023-02-22T23:47:56;100975.38;;;7.71;100.00
51229;BME280;37304;52.216;6.874;2023-02-22T23:53:00;100985.72;;;7.74;100.00
51229;BME280;37304;52.216;6.874;2023-02-22T23:58:02;100984.00;;;7.67;100.00
